Terminal Aerodrome Forecast
Issued by NWS

Home | Current Version | Previous Version | Text Only | Print | Product List | Glossary On
Versions: 1 2 3 4 5 6 7 8 9 10 11 12 13 14 15 16 17 18 19
155
FTUS43 KLSX 291735
TAFCPS
TAF
KCPS 291735Z 2918/3018 29006KT P6SM VCSH BKN040
     FM292200 31004KT P6SM FEW040 SCT250
      TEMPO 3008/3012 5SM BR=

USA.gov is the U.S. government's official web portal to all federal, state and local government web resources and services.